createdAt,value
2018-01-27T00:01:47.522Z,7.70
2018-01-27T00:04:16.672Z,7.80
2018-01-27T00:06:44.428Z,7.80
2018-01-27T00:09:12.203Z,7.80
2018-01-27T00:11:39.906Z,7.80
2018-01-27T00:14:08.634Z,7.80
2018-01-27T00:16:36.325Z,7.80
2018-01-27T00:19:04.265Z,7.80
2018-01-27T00:21:32.127Z,7.80
2018-01-27T00:23:59.893Z,7.80
2018-01-27T00:26:28.396Z,7.80
2018-01-27T00:28:56.844Z,7.80
2018-01-27T00:31:24.847Z,7.70
2018-01-27T00:33:52.550Z,7.70
2018-01-27T00:36:20.626Z,7.70
2018-01-27T00:38:48.522Z,7.70
2018-01-27T00:41:16.286Z,7.70
2018-01-27T00:43:43.932Z,7.70
2018-01-27T00:46:11.767Z,7.70
2018-01-27T00:48:39.574Z,7.80
2018-01-27T00:51:07.384Z,7.80
2018-01-27T00:53:35.881Z,7.80
2018-01-27T00:56:03.840Z,7.80
2018-01-27T00:58:32.406Z,7.80
2018-01-27T01:01:00.236Z,7.70
2018-01-27T01:03:28.119Z,7.80
2018-01-27T01:05:55.965Z,7.70
2018-01-27T01:08:23.664Z,7.70
2018-01-27T01:10:51.664Z,7.70
2018-01-27T01:13:19.668Z,7.70
2018-01-27T01:15:47.398Z,7.60
2018-01-27T01:18:17.798Z,7.70
2018-01-27T01:20:46.930Z,7.60
2018-01-27T01:23:14.817Z,7.60
2018-01-27T01:25:43.276Z,7.60
2018-01-27T01:28:11.451Z,7.60
2018-01-27T01:30:42.779Z,7.60
2018-01-27T01:33:11.246Z,7.50
2018-01-27T01:35:39.577Z,7.50
2018-01-27T01:38:07.473Z,7.50
2018-01-27T01:40:45.315Z,7.60
2018-01-27T01:43:18.877Z,7.50
2018-01-27T01:45:47.362Z,7.50
2018-01-27T01:48:16.402Z,7.50
2018-01-27T01:50:44.604Z,7.40
2018-01-27T01:53:12.962Z,7.30
2018-01-27T01:55:43.409Z,7.30
2018-01-27T01:58:11.082Z,7.30
2018-01-27T02:00:39.059Z,7.20
2018-01-27T02:03:07.703Z,7.30
2018-01-27T02:05:35.578Z,7.30
2018-01-27T02:08:04.355Z,7.30
2018-01-27T02:10:32.421Z,7.30
2018-01-27T02:13:00.295Z,7.20
2018-01-27T02:15:28.056Z,7.20
2018-01-27T02:17:56.437Z,7.20
2018-01-27T02:20:24.409Z,7.20
2018-01-27T02:22:52.374Z,7.20
2018-01-27T02:25:20.207Z,7.20
2018-01-27T02:27:48.839Z,7.20
2018-01-27T02:30:17.241Z,7.20
2018-01-27T02:32:45.882Z,7.30
2018-01-27T02:35:13.750Z,7.20
2018-01-27T02:37:42.147Z,7.30
2018-01-27T02:40:10.213Z,7.30
2018-01-27T02:42:38.089Z,7.30
2018-01-27T02:45:06.055Z,7.30
2018-01-27T02:47:34.504Z,7.30
2018-01-27T02:50:02.228Z,7.20
2018-01-27T02:52:30.091Z,7.30
2018-01-27T02:54:58.620Z,7.30
2018-01-27T02:57:26.301Z,7.30
2018-01-27T02:59:54.146Z,7.30
2018-01-27T03:02:22.022Z,7.30
2018-01-27T03:04:49.812Z,7.30
2018-01-27T03:07:19.253Z,7.20
2018-01-27T03:09:47.047Z,7.20
2018-01-27T03:12:14.807Z,7.30
2018-01-27T03:14:43.228Z,7.20
2018-01-27T03:17:11.899Z,7.10
2018-01-27T03:19:39.742Z,7.10
2018-01-27T03:22:07.455Z,7.10
2018-01-27T03:24:35.861Z,7.10
2018-01-27T03:27:03.895Z,7.10
2018-01-27T03:29:32.435Z,7.10
2018-01-27T03:32:00.657Z,7.10
2018-01-27T03:34:28.338Z,7.00
2018-01-27T03:36:56.144Z,7.10
2018-01-27T03:39:24.018Z,7.10
2018-01-27T03:41:52.534Z,7.20
2018-01-27T03:44:20.256Z,7.20
2018-01-27T03:46:48.023Z,7.20
2018-01-27T03:49:15.886Z,7.20
2018-01-27T03:51:43.575Z,7.10
2018-01-27T03:54:12.023Z,7.10
2018-01-27T03:56:39.895Z,7.10
2018-01-27T03:59:08.391Z,7.10
2018-01-27T04:01:37.446Z,7.00
2018-01-27T04:04:06.089Z,7.00
2018-01-27T04:06:34.504Z,6.90
2018-01-27T04:09:02.872Z,6.90
2018-01-27T04:11:30.905Z,6.90
2018-01-27T04:13:59.319Z,6.90
2018-01-27T04:16:27.573Z,6.90
2018-01-27T04:18:55.420Z,6.90
2018-01-27T04:21:24.139Z,6.90
2018-01-27T04:23:52.372Z,6.90
2018-01-27T04:26:20.120Z,6.90
2018-01-27T04:28:49.400Z,6.90
2018-01-27T04:31:17.160Z,6.90
2018-01-27T04:33:45.030Z,6.90
2018-01-27T04:36:12.934Z,6.90
2018-01-27T04:38:41.910Z,6.90
2018-01-27T04:41:09.583Z,6.90
2018-01-27T04:43:37.252Z,6.90
2018-01-27T04:46:06.547Z,6.90
2018-01-27T04:48:34.190Z,6.90
2018-01-27T04:51:01.881Z,6.80
2018-01-27T04:53:33.331Z,6.80
2018-01-27T04:56:01.805Z,6.80
2018-01-27T04:58:30.711Z,6.80
2018-01-27T05:00:58.514Z,6.80
2018-01-27T05:03:26.543Z,6.80
2018-01-27T05:05:54.383Z,6.80
2018-01-27T05:08:22.217Z,6.80
2018-01-27T05:10:50.080Z,6.80
2018-01-27T05:13:17.916Z,6.70
2018-01-27T05:15:45.709Z,6.70
2018-01-27T05:18:13.415Z,6.70
2018-01-27T05:20:42.223Z,6.70
2018-01-27T05:23:10.024Z,6.60
2018-01-27T05:25:37.890Z,6.70
2018-01-27T05:28:05.753Z,6.80
2018-01-27T05:30:33.631Z,6.70
2018-01-27T05:33:01.383Z,6.70
2018-01-27T05:35:29.253Z,6.80
2018-01-27T05:37:57.156Z,6.70
2018-01-27T05:40:25.702Z,6.70
2018-01-27T05:42:53.491Z,6.70
2018-01-27T05:45:21.254Z,6.60
2018-01-27T05:47:48.890Z,6.70
2018-01-27T05:50:16.731Z,6.60
2018-01-27T05:52:44.415Z,6.60
2018-01-27T05:55:12.105Z,6.70
2018-01-27T05:57:40.656Z,6.70
2018-01-27T06:00:08.401Z,6.70
2018-01-27T06:02:36.491Z,6.70
2018-01-27T06:05:04.357Z,6.80
2018-01-27T06:07:32.046Z,6.80
2018-01-27T06:09:59.884Z,6.80
2018-01-27T06:12:27.680Z,6.90
2018-01-27T06:14:55.512Z,6.90
2018-01-27T06:17:23.276Z,6.80
2018-01-27T06:19:50.967Z,6.80
2018-01-27T06:22:18.617Z,6.80
2018-01-27T06:24:46.667Z,6.80
2018-01-27T06:27:15.034Z,6.80
2018-01-27T06:29:42.808Z,6.90
2018-01-27T06:32:10.572Z,6.90
2018-01-27T06:34:38.262Z,6.90
2018-01-27T06:37:06.031Z,6.90
2018-01-27T06:39:33.866Z,6.90
2018-01-27T06:42:01.731Z,6.90
2018-01-27T06:44:29.447Z,6.90
2018-01-27T06:46:57.886Z,6.90
2018-01-27T06:49:25.577Z,6.90
2018-01-27T06:51:54.221Z,6.90
2018-01-27T06:54:21.865Z,6.90
2018-01-27T06:56:49.527Z,6.90
2018-01-27T06:59:18.021Z,6.90
2018-01-27T07:01:45.788Z,6.90
2018-01-27T07:04:14.217Z,6.90
2018-01-27T07:06:43.583Z,6.70
2018-01-27T07:09:11.938Z,6.70
2018-01-27T07:11:39.701Z,6.70
2018-01-27T07:14:08.181Z,6.70
2018-01-27T07:16:35.946Z,6.70
2018-01-27T07:19:04.530Z,6.70
2018-01-27T07:21:32.224Z,6.70
2018-01-27T07:24:00.059Z,6.60
2018-01-27T07:26:28.562Z,6.60
2018-01-27T07:28:56.225Z,6.60
2018-01-27T07:31:24.633Z,6.60
2018-01-27T07:33:53.447Z,6.60
2018-01-27T07:36:21.870Z,6.60
2018-01-27T07:38:50.527Z,6.60
2018-01-27T07:41:20.480Z,6.60
2018-01-27T07:43:48.310Z,6.60
2018-01-27T07:46:15.997Z,6.60
2018-01-27T07:48:44.747Z,6.70
2018-01-27T07:51:12.682Z,6.70
2018-01-27T07:53:40.485Z,6.80
2018-01-27T07:56:08.707Z,6.80
2018-01-27T07:58:37.528Z,7.00
2018-01-27T08:01:05.622Z,6.90
2018-01-27T08:03:33.866Z,6.90
2018-01-27T08:06:01.505Z,7.00
2018-01-27T08:08:29.633Z,6.90
2018-01-27T08:10:57.396Z,7.00
2018-01-27T08:13:25.104Z,7.00
2018-01-27T08:15:54.345Z,6.80
2018-01-27T08:18:22.041Z,6.80
2018-01-27T08:20:49.827Z,6.80
2018-01-27T08:23:18.357Z,6.80
2018-01-27T08:25:46.150Z,6.80
2018-01-27T08:28:13.988Z,6.90
2018-01-27T08:30:41.731Z,7.00
2018-01-27T08:33:10.030Z,6.90
2018-01-27T08:35:38.506Z,6.90
2018-01-27T08:38:06.948Z,6.90
2018-01-27T08:40:34.702Z,6.90
2018-01-27T08:43:03.332Z,6.90
2018-01-27T08:45:31.117Z,6.90
2018-01-27T08:47:58.792Z,7.00
2018-01-27T08:50:26.505Z,7.00
2018-01-27T08:52:54.197Z,7.00
2018-01-27T08:55:22.194Z,7.10
2018-01-27T08:57:51.726Z,7.20
2018-01-27T09:00:19.417Z,7.20
2018-01-27T09:02:47.185Z,7.30
2018-01-27T09:05:15.762Z,7.20
2018-01-27T09:07:43.400Z,7.20
2018-01-27T09:10:11.494Z,7.20
2018-01-27T09:12:39.257Z,7.20
2018-01-27T09:15:06.906Z,7.20
2018-01-27T09:17:34.681Z,7.30
2018-01-27T09:20:02.570Z,7.30
2018-01-27T09:22:30.414Z,7.20
2018-01-27T09:24:58.177Z,7.10
2018-01-27T09:27:25.845Z,7.10
2018-01-27T09:29:53.495Z,7.10
2018-01-27T09:32:21.737Z,7.10
2018-01-27T09:34:50.294Z,7.10
2018-01-27T09:37:18.773Z,7.10
2018-01-27T09:39:46.602Z,7.10
2018-01-27T09:42:15.220Z,7.20
2018-01-27T09:44:44.401Z,7.30
2018-01-27T09:47:12.062Z,7.30
2018-01-27T09:49:39.829Z,7.40
2018-01-27T09:52:08.186Z,7.30
2018-01-27T09:54:35.997Z,7.30
2018-01-27T09:57:04.478Z,7.30
2018-01-27T09:59:33.113Z,7.30
2018-01-27T10:02:00.805Z,7.30
2018-01-27T10:04:28.570Z,7.40
2018-01-27T10:06:57.075Z,7.60
2018-01-27T10:09:25.536Z,7.60
2018-01-27T10:11:54.712Z,7.70
2018-01-27T10:14:22.366Z,7.70
2018-01-27T10:16:50.069Z,7.80
2018-01-27T10:19:18.529Z,7.60
2018-01-27T10:21:47.842Z,7.50
2018-01-27T10:24:17.100Z,7.50
2018-01-27T10:26:44.775Z,7.50
2018-01-27T10:29:13.451Z,7.40
2018-01-27T10:31:41.207Z,7.40
2018-01-27T10:34:09.014Z,7.40
2018-01-27T10:36:37.444Z,7.30
2018-01-27T10:39:05.329Z,7.30
2018-01-27T10:41:33.178Z,7.30
2018-01-27T10:44:00.840Z,7.30
2018-01-27T10:46:28.711Z,7.30
2018-01-27T10:48:56.566Z,7.10
2018-01-27T10:51:24.334Z,7.00
2018-01-27T10:53:52.201Z,7.00
2018-01-27T10:56:20.118Z,7.00
2018-01-27T10:58:48.534Z,7.00
2018-01-27T11:01:16.243Z,7.00
2018-01-27T11:03:44.074Z,7.00
2018-01-27T11:06:11.942Z,7.00
2018-01-27T11:08:39.702Z,7.00
2018-01-27T11:11:07.397Z,6.90
2018-01-27T11:13:35.232Z,6.80
2018-01-27T11:16:04.048Z,6.80
2018-01-27T11:18:32.324Z,6.70
2018-01-27T11:21:00.496Z,6.70
2018-01-27T11:23:28.183Z,6.70
2018-01-27T11:25:57.663Z,6.80
2018-01-27T11:28:25.490Z,6.80
2018-01-27T11:30:53.505Z,6.70
2018-01-27T11:33:22.049Z,6.70
2018-01-27T11:35:50.979Z,6.70
2018-01-27T11:38:19.417Z,6.70
2018-01-27T11:40:47.098Z,6.70
2018-01-27T11:43:14.843Z,6.70
2018-01-27T11:45:42.857Z,6.60
2018-01-27T11:48:11.992Z,6.60
2018-01-27T11:50:39.674Z,6.60
2018-01-27T11:53:07.317Z,6.70
2018-01-27T11:55:35.022Z,6.70
2018-01-27T11:58:02.808Z,6.80
2018-01-27T12:00:30.478Z,6.80
2018-01-27T12:02:59.019Z,6.80
2018-01-27T12:05:27.022Z,6.80
2018-01-27T12:07:55.652Z,6.70
2018-01-27T12:10:23.515Z,6.70
2018-01-27T12:12:51.337Z,6.70
2018-01-27T12:15:19.874Z,6.60
2018-01-27T12:17:47.730Z,6.60
2018-01-27T12:20:15.448Z,6.60
2018-01-27T12:22:43.107Z,6.50
2018-01-27T12:25:11.546Z,6.70
2018-01-27T12:27:39.594Z,6.70
2018-01-27T12:30:08.563Z,6.80
2018-01-27T12:32:36.356Z,6.80
2018-01-27T12:35:04.029Z,6.90
2018-01-27T12:37:31.708Z,7.00
2018-01-27T12:39:59.411Z,6.90
2018-01-27T12:42:29.152Z,6.90
2018-01-27T12:44:56.848Z,6.90
2018-01-27T12:47:24.577Z,6.90
2018-01-27T12:49:52.441Z,6.90
2018-01-27T12:52:20.096Z,6.80
2018-01-27T12:54:47.793Z,6.80
2018-01-27T12:57:15.500Z,6.80
2018-01-27T12:59:43.182Z,6.80
2018-01-27T13:02:10.877Z,6.80
2018-01-27T13:04:38.567Z,6.90
2018-01-27T13:07:08.407Z,7.10
2018-01-27T13:09:36.097Z,7.10
2018-01-27T13:12:03.766Z,7.20
2018-01-27T13:14:32.211Z,7.20
2018-01-27T13:16:59.905Z,7.30
2018-01-27T13:19:27.573Z,7.40
2018-01-27T13:21:55.412Z,7.40
2018-01-27T13:24:23.280Z,7.30
2018-01-27T13:26:51.001Z,7.50
2018-01-27T13:29:18.800Z,7.40
2018-01-27T13:31:46.576Z,7.50
2018-01-27T13:34:14.225Z,7.50
2018-01-27T13:36:41.898Z,7.60
2018-01-27T13:39:09.659Z,7.60
2018-01-27T13:41:37.464Z,7.60
2018-01-27T13:44:06.112Z,7.80
2018-01-27T13:46:34.618Z,7.80
2018-01-27T13:49:03.070Z,7.90
2018-01-27T13:51:30.832Z,8.30
2018-01-27T13:53:58.824Z,8.50
2018-01-27T13:56:27.092Z,8.70
2018-01-27T13:58:54.775Z,9.20
2018-01-27T14:01:23.263Z,10.20
2018-01-27T14:03:51.745Z,10.40
2018-01-27T14:06:20.221Z,10.80
2018-01-27T14:08:49.358Z,11.30
2018-01-27T14:11:17.165Z,11.20
2018-01-27T14:13:44.995Z,11.80
2018-01-27T14:16:12.673Z,11.60
2018-01-27T14:18:41.951Z,11.50
2018-01-27T14:21:09.670Z,11.20
2018-01-27T14:23:37.973Z,11.00
2018-01-27T14:26:06.479Z,10.30
2018-01-27T14:28:34.242Z,9.40
2018-01-27T14:31:02.031Z,8.90
2018-01-27T14:33:29.766Z,8.50
2018-01-27T14:35:57.571Z,8.10
2018-01-27T14:38:26.017Z,7.70
2018-01-27T14:40:53.810Z,7.70
2018-01-27T14:43:22.433Z,7.70
2018-01-27T14:45:50.433Z,7.60
2018-01-27T14:48:18.160Z,7.60
2018-01-27T14:50:45.966Z,7.60
2018-01-27T14:53:14.331Z,7.60
2018-01-27T14:55:42.771Z,7.60
2018-01-27T14:58:11.306Z,7.60
2018-01-27T15:00:39.300Z,7.60
2018-01-27T15:03:07.130Z,7.60
2018-01-27T15:05:34.910Z,7.60
2018-01-27T15:08:02.803Z,7.70
2018-01-27T15:10:31.382Z,7.60
2018-01-27T15:13:00.220Z,7.50
2018-01-27T15:15:28.093Z,7.50
2018-01-27T15:17:56.062Z,7.60
2018-01-27T15:20:23.760Z,7.60
2018-01-27T15:22:51.482Z,7.60
2018-01-27T15:25:19.303Z,7.60
2018-01-27T15:27:47.711Z,7.50
2018-01-27T15:30:16.037Z,7.40
2018-01-27T15:32:43.997Z,7.40
2018-01-27T15:35:11.838Z,7.30
2018-01-27T15:37:39.583Z,7.30
2018-01-27T15:40:07.260Z,7.30
2018-01-27T15:42:35.126Z,7.30
2018-01-27T15:45:02.891Z,7.30
2018-01-27T15:47:31.453Z,7.20
2018-01-27T15:49:59.939Z,7.20
2018-01-27T15:52:28.302Z,7.20
2018-01-27T15:54:56.198Z,7.20
2018-01-27T15:57:24.781Z,7.10
2018-01-27T15:59:52.548Z,7.20
2018-01-27T16:02:20.426Z,7.30
2018-01-27T16:04:48.172Z,7.30
2018-01-27T16:07:16.198Z,7.20
2018-01-27T16:09:44.621Z,7.30
2018-01-27T16:12:12.261Z,7.30
2018-01-27T16:14:40.045Z,7.20
2018-01-27T16:17:07.806Z,7.10
2018-01-27T16:19:35.570Z,7.10
2018-01-27T16:22:03.336Z,7.10
2018-01-27T16:24:31.716Z,7.10
2018-01-27T16:26:59.584Z,7.10
2018-01-27T16:29:27.445Z,7.00
2018-01-27T16:31:55.206Z,7.00
2018-01-27T16:34:23.083Z,7.00
2018-01-27T16:36:50.785Z,7.00
2018-01-27T16:39:19.241Z,7.10
2018-01-27T16:41:46.942Z,7.10
2018-01-27T16:44:14.697Z,7.20
2018-01-27T16:46:43.450Z,7.20
2018-01-27T16:49:11.182Z,7.20
2018-01-27T16:51:38.824Z,7.20
2018-01-27T16:54:07.514Z,7.20
2018-01-27T16:56:35.405Z,7.10
2018-01-27T16:59:03.889Z,7.20
2018-01-27T17:01:32.139Z,7.10
2018-01-27T17:03:59.935Z,7.10
2018-01-27T17:06:28.403Z,7.20
2018-01-27T17:08:56.207Z,7.20
2018-01-27T17:11:24.751Z,7.30
2018-01-27T17:13:54.214Z,7.30
2018-01-27T17:16:22.165Z,7.30
2018-01-27T17:18:50.756Z,7.40
2018-01-27T17:21:18.568Z,7.30
2018-01-27T17:23:46.217Z,7.30
2018-01-27T17:26:13.894Z,7.40
2018-01-27T17:28:41.615Z,7.30
2018-01-27T17:31:09.699Z,7.40
2018-01-27T17:33:37.600Z,7.30
2018-01-27T17:36:05.485Z,7.30
2018-01-27T17:38:33.215Z,7.30
2018-01-27T17:41:00.853Z,7.30
2018-01-27T17:43:28.562Z,7.20
2018-01-27T17:45:56.558Z,7.20
2018-01-27T17:48:24.252Z,7.10
2018-01-27T17:50:52.030Z,7.10
2018-01-27T17:53:20.582Z,7.10
2018-01-27T17:55:48.713Z,7.10
2018-01-27T17:58:17.139Z,7.00
2018-01-27T18:00:45.185Z,7.00
2018-01-27T18:03:13.947Z,7.00
2018-01-27T18:05:42.557Z,7.00
2018-01-27T18:08:11.189Z,7.00
2018-01-27T18:10:39.208Z,7.00
2018-01-27T18:13:07.748Z,7.00
2018-01-27T18:15:35.499Z,7.00
2018-01-27T18:18:03.164Z,7.00
2018-01-27T18:20:30.925Z,7.10
2018-01-27T18:22:58.795Z,7.10
2018-01-27T18:25:26.658Z,7.10
2018-01-27T18:27:54.344Z,7.10
2018-01-27T18:30:22.900Z,7.10
2018-01-27T18:32:50.708Z,7.10
2018-01-27T18:35:19.134Z,7.00
2018-01-27T18:37:47.010Z,7.00
2018-01-27T18:40:14.715Z,7.00
2018-01-27T18:42:42.393Z,7.00
2018-01-27T18:45:10.161Z,7.00
2018-01-27T18:47:38.486Z,7.00
2018-01-27T18:50:06.849Z,6.90
2018-01-27T18:52:35.085Z,6.90
2018-01-27T18:55:02.889Z,6.90
2018-01-27T18:57:30.589Z,6.80
2018-01-27T18:59:59.071Z,6.80
2018-01-27T19:02:27.821Z,6.70
2018-01-27T19:04:55.483Z,6.70
2018-01-27T19:07:23.138Z,6.70
2018-01-27T19:09:51.025Z,6.70
2018-01-27T19:12:19.245Z,6.70
2018-01-27T19:14:46.990Z,6.70
2018-01-27T19:17:15.588Z,6.60
2018-01-27T19:19:43.390Z,6.60
2018-01-27T19:22:11.291Z,6.60
2018-01-27T19:24:39.139Z,6.50
2018-01-27T19:27:06.986Z,6.50
2018-01-27T19:29:34.852Z,6.50
2018-01-27T19:32:02.719Z,6.40
2018-01-27T19:34:31.337Z,6.50
2018-01-27T19:36:59.098Z,6.50
2018-01-27T19:39:27.555Z,6.40
2018-01-27T19:41:55.521Z,6.40
2018-01-27T19:44:24.198Z,6.30
2018-01-27T19:46:51.841Z,6.30
2018-01-27T19:49:22.372Z,6.30
2018-01-27T19:51:50.254Z,6.30
2018-01-27T19:54:17.933Z,6.30
2018-01-27T19:56:45.726Z,6.30
2018-01-27T19:59:15.080Z,6.30
2018-01-27T20:01:42.727Z,6.20
2018-01-27T20:04:10.507Z,6.20
2018-01-27T20:06:38.181Z,6.20
2018-01-27T20:09:06.165Z,6.10
2018-01-27T20:11:34.612Z,6.10
2018-01-27T20:14:02.318Z,6.10
2018-01-27T20:16:31.071Z,6.00
2018-01-27T20:18:58.930Z,6.00
2018-01-27T20:21:26.791Z,6.00
2018-01-27T20:23:54.566Z,6.00
2018-01-27T20:26:22.247Z,5.90
2018-01-27T20:28:49.984Z,5.90
2018-01-27T20:31:17.676Z,5.90
2018-01-27T20:33:45.540Z,5.90
2018-01-27T20:36:14.034Z,5.80
2018-01-27T20:38:42.577Z,5.80
2018-01-27T20:41:10.340Z,5.70
2018-01-27T20:43:38.044Z,5.80
2018-01-27T20:46:06.482Z,5.70
2018-01-27T20:48:34.194Z,5.80
2018-01-27T20:51:02.638Z,5.70
2018-01-27T20:53:30.334Z,5.70
2018-01-27T20:55:58.829Z,5.80
2018-01-27T20:58:26.639Z,5.80
2018-01-27T21:00:54.755Z,5.80
2018-01-27T21:03:22.561Z,5.80
2018-01-27T21:05:50.425Z,5.80
2018-01-27T21:08:18.190Z,5.80
2018-01-27T21:10:46.055Z,5.80
2018-01-27T21:13:13.922Z,5.80
2018-01-27T21:15:41.789Z,5.70
2018-01-27T21:18:10.601Z,5.70
2018-01-27T21:20:39.286Z,5.80
2018-01-27T21:23:07.225Z,5.70
2018-01-27T21:25:34.989Z,5.70
2018-01-27T21:28:02.862Z,5.70
2018-01-27T21:30:30.750Z,5.70
2018-01-27T21:32:58.587Z,5.70
2018-01-27T21:35:26.350Z,5.70
2018-01-27T21:37:54.117Z,5.70
2018-01-27T21:40:22.188Z,5.70
2018-01-27T21:42:49.932Z,5.80
2018-01-27T21:45:17.714Z,5.80
2018-01-27T21:47:46.087Z,5.80
2018-01-27T21:50:14.246Z,5.80
2018-01-27T21:52:42.025Z,5.80
2018-01-27T21:55:09.722Z,5.80
2018-01-27T21:57:37.495Z,5.80
2018-01-27T22:00:06.031Z,5.90
2018-01-27T22:02:33.799Z,5.80
2018-01-27T22:05:01.558Z,5.90
2018-01-27T22:07:29.271Z,5.90
2018-01-27T22:09:58.057Z,5.90
2018-01-27T22:12:27.644Z,5.90
2018-01-27T22:14:55.477Z,5.90
2018-01-27T22:17:23.133Z,5.90
2018-01-27T22:19:50.909Z,6.00
2018-01-27T22:22:18.666Z,6.00
2018-01-27T22:24:46.430Z,6.00
2018-01-27T22:27:14.805Z,5.90
2018-01-27T22:29:42.625Z,5.90
2018-01-27T22:32:11.712Z,5.90
2018-01-27T22:34:40.118Z,5.90
2018-01-27T22:37:07.909Z,5.90
2018-01-27T22:39:35.565Z,6.00
2018-01-27T22:42:03.233Z,6.00
2018-01-27T22:44:31.096Z,6.00
2018-01-27T22:46:58.904Z,6.00
2018-01-27T22:49:27.544Z,6.00
2018-01-27T22:51:55.427Z,5.90
2018-01-27T22:54:23.106Z,6.00
2018-01-27T22:56:50.870Z,5.90
2018-01-27T22:59:19.519Z,6.00
2018-01-27T23:01:47.292Z,5.90
2018-01-27T23:04:15.147Z,6.00
2018-01-27T23:06:43.243Z,6.00
2018-01-27T23:09:10.983Z,6.00
2018-01-27T23:11:38.749Z,6.00
2018-01-27T23:14:06.611Z,6.00
2018-01-27T23:16:34.844Z,6.10
2018-01-27T23:19:03.409Z,6.00
2018-01-27T23:21:31.335Z,6.00
2018-01-27T23:23:59.202Z,6.00
2018-01-27T23:26:28.770Z,6.00
2018-01-27T23:28:56.522Z,6.00
2018-01-27T23:31:24.982Z,6.00
2018-01-27T23:33:54.505Z,6.00
2018-01-27T23:36:23.035Z,6.00
2018-01-27T23:38:50.801Z,6.00
2018-01-27T23:41:19.376Z,6.10
2018-01-27T23:43:47.144Z,6.10
2018-01-27T23:46:15.456Z,6.00
2018-01-27T23:48:44.109Z,6.10
2018-01-27T23:51:11.900Z,6.10
2018-01-27T23:53:39.776Z,6.10
2018-01-27T23:56:08.248Z,6.10
2018-01-27T23:58:37.107Z,6.10
